Time;durP1;ratioP1;P1;durP2;ratioP2;P2;SDS_P1;SDS_P2;PMS_P1;PMS_P2;Temp;Humidity;BMP_temperature;BMP_pressure;BME280_temperature;BME280_humidity;BME280_pressure;Samples;Min_cycle;Max_cycle;Signal;HPM_P1;HPM_P2
2021/10/06 00:01:06;;;;;;;8.70;4.70;;;12.20;97.30;;;;;;5077213;28;20205;-82
2021/10/06 00:03:32;;;;;;;9.30;4.83;;;12.20;97.30;;;;;;5078292;28;20181;-81
2021/10/06 00:05:57;;;;;;;10.27;5.13;;;12.20;97.30;;;;;;5077274;28;21036;-82
2021/10/06 00:08:25;;;;;;;9.27;5.57;;;12.20;97.30;;;;;;5077721;28;20179;-80
2021/10/06 00:10:51;;;;;;;11.53;4.80;;;12.30;97.30;;;;;;5076452;28;20290;-82
2021/10/06 00:13:17;;;;;;;11.00;5.10;;;12.30;97.30;;;;;;5075947;28;20891;-82
2021/10/06 00:15:44;;;;;;;11.13;5.50;;;12.30;97.30;;;;;;5076033;28;20175;-81
2021/10/06 00:18:09;;;;;;;11.20;5.50;;;12.40;97.30;;;;;;5077491;28;20515;-82
2021/10/06 00:20:35;;;;;;;9.30;4.90;;;12.40;97.30;;;;;;5077108;28;20517;-82
2021/10/06 00:23:02;;;;;;;8.23;4.77;;;12.40;97.30;;;;;;5078233;28;20171;-81
2021/10/06 00:25:27;;;;;;;9.93;4.97;;;12.40;97.30;;;;;;5077777;28;20598;-80
2021/10/06 00:27:53;;;;;;;8.40;4.67;;;12.40;97.30;;;;;;5077025;28;20413;-81
2021/10/06 00:30:18;;;;;;;8.83;4.90;;;12.50;97.30;;;;;;5076582;28;20251;-80
2021/10/06 00:32:44;;;;;;;9.47;4.53;;;12.50;97.30;;;;;;5077424;28;20199;-82
2021/10/06 00:35:12;;;;;;;8.40;5.10;;;12.50;97.30;;;;;;5075474;28;20193;-81
2021/10/06 00:37:38;;;;;;;10.07;5.30;;;12.50;97.30;;;;;;5076134;28;20195;-81
2021/10/06 00:40:05;;;;;;;7.50;4.80;;;12.60;97.30;;;;;;5075680;28;20437;-81
2021/10/06 00:42:30;;;;;;;9.90;4.57;;;12.60;97.30;;;;;;5077653;28;20189;-80
2021/10/06 00:44:56;;;;;;;6.13;3.80;;;12.60;97.30;;;;;;5078436;28;20445;-82
2021/10/06 00:47:22;;;;;;;8.33;5.37;;;12.70;97.30;;;;;;5076201;28;20232;-79
2021/10/06 00:49:47;;;;;;;7.90;4.17;;;12.70;97.30;;;;;;5076548;28;20234;-79
2021/10/06 00:52:15;;;;;;;8.83;4.90;;;12.70;97.30;;;;;;5076120;28;20207;-81
2021/10/06 00:54:41;;;;;;;6.80;4.23;;;12.80;97.30;;;;;;5076405;28;20180;-81
2021/10/06 00:57:07;;;;;;;5.30;3.90;;;12.80;97.30;;;;;;5074971;28;20424;-81
2021/10/06 00:59:33;;;;;;;7.50;3.90;;;12.80;97.30;;;;;;5076299;28;20433;-82
2021/10/06 01:01:59;;;;;;;7.10;4.30;;;12.80;97.30;;;;;;5075159;28;20182;-81
2021/10/06 01:04:25;;;;;;;9.03;4.10;;;12.90;97.30;;;;;;5075726;28;20417;-82
2021/10/06 01:06:50;;;;;;;8.47;4.37;;;12.90;97.30;;;;;;5076246;28;20839;-81
2021/10/06 01:09:16;;;;;;;6.23;4.30;;;12.90;97.30;;;;;;5076052;28;20410;-81
2021/10/06 01:11:42;;;;;;;8.07;4.93;;;12.90;97.30;;;;;;5074688;28;20649;-77
2021/10/06 01:14:08;;;;;;;14.10;4.30;;;12.90;97.30;;;;;;5076044;28;20237;-81
2021/10/06 01:16:34;;;;;;;7.83;4.20;;;12.90;97.30;;;;;;5076515;28;20198;-82
2021/10/06 01:19:00;;;;;;;5.93;4.00;;;12.90;97.30;;;;;;5075097;28;20441;-82
2021/10/06 01:21:26;;;;;;;5.23;3.40;;;12.90;97.30;;;;;;5074867;28;20476;-80
2021/10/06 01:23:54;;;;;;;8.10;3.77;;;12.90;97.30;;;;;;5075022;28;20187;-82
2021/10/06 01:26:20;;;;;;;5.70;3.80;;;13.00;97.30;;;;;;5075298;28;20175;-82
2021/10/06 01:28:53;;;;;;;6.47;3.57;;;13.00;97.30;;;;;;5076632;28;20543;-78
2021/10/06 01:31:24;;;;;;;3.80;3.03;;;13.00;97.30;;;;;;5076328;28;20448;-82
2021/10/06 01:33:52;;;;;;;5.13;3.03;;;13.10;97.30;;;;;;5075500;28;20480;-81
2021/10/06 01:36:18;;;;;;;5.10;3.30;;;13.10;97.30;;;;;;5078510;28;20417;-80
2021/10/06 01:38:43;;;;;;;3.10;2.43;;;13.10;97.30;;;;;;5079133;28;20908;-81
2021/10/06 01:41:09;;;;;;;4.13;3.07;;;13.20;97.30;;;;;;5079254;28;20222;-82
2021/10/06 01:43:35;;;;;;;4.10;3.20;;;13.20;97.30;;;;;;5077674;28;20183;-82
2021/10/06 01:46:00;;;;;;;5.63;2.63;;;13.20;97.30;;;;;;5079178;28;20637;-80
2021/10/06 01:48:27;;;;;;;4.37;3.17;;;13.20;97.30;;;;;;5078597;28;20250;-81
2021/10/06 01:50:55;;;;;;;3.10;2.73;;;13.20;97.30;;;;;;5077554;28;20195;-82
2021/10/06 01:53:21;;;;;;;2.13;1.97;;;13.20;97.30;;;;;;5075566;28;20994;-81
2021/10/06 01:55:47;;;;;;;3.67;2.00;;;13.10;97.30;;;;;;5074650;28;20451;-82
2021/10/06 01:58:15;;;;;;;2.97;1.90;;;13.10;97.30;;;;;;5075525;28;20179;-81
2021/10/06 02:00:46;;;;;;;2.93;2.37;;;13.10;97.30;;;;;;5074991;28;20433;-81
2021/10/06 02:03:11;;;;;;;2.23;1.97;;;13.10;97.30;;;;;;5074626;28;20421;-80
2021/10/06 02:05:37;;;;;;;2.53;2.10;;;13.10;97.30;;;;;;5074603;28;20475;-81
2021/10/06 02:08:04;;;;;;;2.13;1.80;;;13.10;97.30;;;;;;5073869;28;20629;-82
2021/10/06 02:10:32;;;;;;;4.00;1.87;;;13.10;97.30;;;;;;5074164;28;20208;-82
2021/10/06 02:12:59;;;;;;;2.83;1.43;;;13.10;97.30;;;;;;5074147;28;20510;-81
2021/10/06 02:15:25;;;;;;;5.77;2.03;;;13.10;97.30;;;;;;5074362;28;20406;-79
2021/10/06 02:17:54;;;;;;;2.57;1.93;;;13.10;97.30;;;;;;5075766;28;20409;-78
2021/10/06 02:20:22;;;;;;;2.70;1.70;;;13.10;97.30;;;;;;5074312;28;20894;-82
2021/10/06 02:22:48;;;;;;;3.43;1.90;;;13.10;97.30;;;;;;5074567;28;20413;-80
2021/10/06 02:25:13;;;;;;;3.53;1.93;;;13.10;97.30;;;;;;5073734;28;20424;-83
2021/10/06 02:27:41;;;;;;;2.30;1.83;;;13.10;97.30;;;;;;5073513;28;20175;-81
2021/10/06 02:30:08;;;;;;;3.60;2.00;;;13.10;97.30;;;;;;5075295;28;20199;-80
2021/10/06 02:32:33;;;;;;;1.97;1.80;;;13.00;97.30;;;;;;5074596;28;20445;-81
2021/10/06 02:34:59;;;;;;;3.20;1.97;;;13.00;97.30;;;;;;5074801;28;20416;-79
2021/10/06 02:37:25;;;;;;;4.70;1.60;;;13.00;97.30;;;;;;5075965;28;20179;-82
2021/10/06 02:39:50;;;;;;;2.03;1.73;;;13.00;97.30;;;;;;5075541;28;20281;-80
2021/10/06 02:42:16;;;;;;;3.07;1.70;;;12.90;97.30;;;;;;5075090;28;20607;-82
2021/10/06 02:44:43;;;;;;;1.50;1.40;;;12.90;97.30;;;;;;5074621;28;20549;-80
2021/10/06 02:47:09;;;;;;;1.97;1.80;;;12.90;97.30;;;;;;5075426;28;20179;-80
2021/10/06 02:49:36;;;;;;;3.00;1.80;;;12.80;97.30;;;;;;5074119;28;20807;-81
2021/10/06 02:52:05;;;;;;;1.80;1.70;;;12.80;97.30;;;;;;5073923;28;20262;-81
2021/10/06 02:54:33;;;;;;;3.67;1.60;;;12.80;97.30;;;;;;5074535;28;20413;-80
2021/10/06 02:57:04;;;;;;;2.03;1.90;;;12.80;97.30;;;;;;5074132;28;20442;-80
2021/10/06 02:59:33;;;;;;;2.47;1.50;;;12.70;97.30;;;;;;5075145;28;20437;-79
2021/10/06 03:01:58;;;;;;;1.60;1.30;;;12.70;97.30;;;;;;5074553;28;20862;-80
2021/10/06 03:04:24;;;;;;;2.17;1.50;;;12.70;97.30;;;;;;5074357;28;20409;-80
2021/10/06 03:06:50;;;;;;;1.40;1.30;;;12.60;97.30;;;;;;5075097;28;20254;-81
2021/10/06 03:09:16;;;;;;;4.53;1.57;;;12.60;97.30;;;;;;5075328;28;20171;-80
2021/10/06 03:11:42;;;;;;;2.30;1.30;;;12.50;97.30;;;;;;5072890;28;20991;-80
2021/10/06 03:14:08;;;;;;;2.03;1.40;;;12.50;97.30;;;;;;5073230;28;20463;-81
2021/10/06 03:16:34;;;;;;;6.30;1.73;;;12.50;97.30;;;;;;5074368;28;20405;-81
2021/10/06 03:19:00;;;;;;;1.70;1.50;;;12.40;97.30;;;;;;5073503;28;20176;-82
2021/10/06 03:21:25;;;;;;;1.60;1.30;;;12.40;97.30;;;;;;5073771;28;20469;-79
2021/10/06 03:23:58;;;;;;;5.50;1.23;;;12.40;97.30;;;;;;5074464;28;20183;-79
2021/10/06 03:26:24;;;;;;;1.40;1.20;;;12.30;97.30;;;;;;5075097;28;20175;-80
2021/10/06 03:28:49;;;;;;;7.43;1.40;;;12.30;97.30;;;;;;5075921;28;20410;-80
2021/10/06 03:31:15;;;;;;;2.23;1.30;;;12.20;97.30;;;;;;5075235;28;20237;-82
2021/10/06 03:33:41;;;;;;;3.83;2.00;;;12.20;97.30;;;;;;5074731;28;20203;-81
2021/10/06 03:36:06;;;;;;;2.33;1.80;;;12.20;97.30;;;;;;5077364;28;20196;-82
2021/10/06 03:38:32;;;;;;;6.17;1.40;;;12.20;97.30;;;;;;5078622;28;20328;-81
2021/10/06 03:40:58;;;;;;;7.17;1.60;;;12.10;97.30;;;;;;5077746;28;20564;-82
2021/10/06 03:43:23;;;;;;;3.40;1.73;;;12.10;97.30;;;;;;5079649;28;20551;-81
2021/10/06 03:45:49;;;;;;;3.07;1.53;;;12.10;97.30;;;;;;5078253;28;20661;-81
2021/10/06 03:48:15;;;;;;;1.57;1.47;;;12.10;97.30;;;;;;5079781;28;20178;-80
2021/10/06 03:50:45;;;;;;;3.70;1.70;;;12.00;97.30;;;;;;5077745;28;20199;-80
2021/10/06 03:53:12;;;;;;;2.40;1.30;;;12.00;97.30;;;;;;5079518;28;20207;-80
2021/10/06 03:55:38;;;;;;;2.80;1.53;;;12.00;97.30;;;;;;5077371;28;20456;-81
2021/10/06 03:58:04;;;;;;;2.03;1.50;;;12.00;97.30;;;;;;5078239;28;20848;-81
2021/10/06 04:00:30;;;;;;;5.33;1.87;;;11.90;97.30;;;;;;5077597;28;21058;-81
2021/10/06 04:02:55;;;;;;;1.43;1.20;;;11.90;97.30;;;;;;5077065;28;20516;-80
2021/10/06 04:05:21;;;;;;;1.93;1.50;;;11.90;97.30;;;;;;5078524;28;20171;-80
2021/10/06 04:07:46;;;;;;;3.33;1.57;;;11.90;97.30;;;;;;5077071;28;20190;-81
2021/10/06 04:10:12;;;;;;;3.50;1.37;;;11.80;97.30;;;;;;5079297;28;20697;-80
2021/10/06 04:12:38;;;;;;;4.40;1.50;;;11.70;97.30;;;;;;5077036;28;20645;-81
2021/10/06 04:15:04;;;;;;;2.83;1.70;;;11.60;97.30;;;;;;5076887;28;20171;-81
2021/10/06 04:17:30;;;;;;;5.33;1.60;;;11.60;97.30;;;;;;5077972;28;20175;-81
2021/10/06 04:19:55;;;;;;;6.37;1.77;;;11.50;97.30;;;;;;5076071;28;20465;-81
2021/10/06 04:22:21;;;;;;;2.43;1.57;;;11.40;97.30;;;;;;5078052;28;20183;-80
2021/10/06 04:24:46;;;;;;;2.20;1.80;;;11.40;97.30;;;;;;5077062;28;20179;-82
2021/10/06 04:27:12;;;;;;;2.00;1.50;;;11.30;97.30;;;;;;5077341;28;20551;-79
2021/10/06 04:29:37;;;;;;;2.40;1.33;;;11.30;97.30;;;;;;5077607;28;20198;-82
2021/10/06 04:32:03;;;;;;;2.30;1.50;;;11.30;97.30;;;;;;5077491;28;20182;-81
2021/10/06 04:34:30;;;;;;;1.60;1.50;;;11.20;97.30;;;;;;5076934;28;20179;-81
2021/10/06 04:36:55;;;;;;;4.33;1.80;;;11.20;97.30;;;;;;5078455;28;20425;-81
2021/10/06 04:39:21;;;;;;;2.67;1.70;;;11.20;97.30;;;;;;5076727;28;20488;-80
2021/10/06 04:41:48;;;;;;;2.97;1.53;;;11.20;97.30;;;;;;5076079;28;20174;-80
2021/10/06 04:44:14;;;;;;;2.03;1.43;;;11.20;97.30;;;;;;5075721;28;20232;-80
2021/10/06 04:46:39;;;;;;;6.13;1.70;;;11.30;97.30;;;;;;5074806;28;20410;-80
2021/10/06 04:49:05;;;;;;;5.17;1.80;;;11.20;97.30;;;;;;5076298;28;20417;-81
2021/10/06 04:51:30;;;;;;;2.57;1.73;;;11.20;97.30;;;;;;5077681;28;20656;-81
2021/10/06 04:53:56;;;;;;;2.20;1.60;;;11.20;97.30;;;;;;5077188;28;20202;-81
2021/10/06 04:56:22;;;;;;;3.00;2.63;;;11.20;97.30;;;;;;5077206;28;20167;-81
2021/10/06 04:58:47;;;;;;;3.00;1.70;;;11.20;97.30;;;;;;5076600;28;20931;-79
2021/10/06 05:01:13;;;;;;;4.43;1.40;;;11.10;97.30;;;;;;5077733;28;20183;-80
2021/10/06 05:03:39;;;;;;;3.10;1.83;;;11.10;97.30;;;;;;5075030;28;20179;-81
2021/10/06 05:06:05;;;;;;;3.57;1.90;;;11.10;97.30;;;;;;5074743;28;20532;-81
2021/10/06 05:08:32;;;;;;;3.67;1.67;;;11.10;97.30;;;;;;5074694;28;20435;-77
2021/10/06 05:10:58;;;;;;;2.27;1.40;;;11.10;97.30;;;;;;5075373;28;20221;-81
2021/10/06 05:13:24;;;;;;;3.40;1.67;;;11.10;97.30;;;;;;5075433;28;20825;-81
2021/10/06 05:15:49;;;;;;;3.33;1.43;;;11.10;97.30;;;;;;5076944;28;20605;-82
2021/10/06 05:18:15;;;;;;;4.13;1.83;;;11.00;97.30;;;;;;5076903;28;20171;-82
2021/10/06 05:20:43;;;;;;;3.43;1.90;;;11.10;97.30;;;;;;5076440;28;20634;-80
2021/10/06 05:23:08;;;;;;;1.83;1.50;;;11.10;97.30;;;;;;5075816;28;20178;-81
2021/10/06 05:25:35;;;;;;;6.70;1.90;;;11.10;97.30;;;;;;5075574;28;20417;-79
2021/10/06 05:28:01;;;;;;;4.37;2.00;;;11.10;97.30;;;;;;5076141;28;20611;-81
2021/10/06 05:30:27;;;;;;;2.80;1.73;;;11.10;97.30;;;;;;5074486;28;20436;-81
2021/10/06 05:32:53;;;;;;;2.17;1.90;;;11.10;97.30;;;;;;5074883;28;20465;-81
2021/10/06 05:35:19;;;;;;;2.40;1.63;;;11.00;97.30;;;;;;5075330;28;20482;-81
2021/10/06 05:37:45;;;;;;;3.77;1.90;;;11.00;97.30;;;;;;5076166;28;20175;-81
2021/10/06 05:40:11;;;;;;;3.20;1.63;;;11.00;97.30;;;;;;5075639;28;20436;-80
2021/10/06 05:42:37;;;;;;;4.97;2.00;;;11.00;97.30;;;;;;5075192;28;20417;-82
2021/10/06 05:45:03;;;;;;;4.90;2.10;;;11.00;97.30;;;;;;5077015;28;20199;-81
2021/10/06 05:47:28;;;;;;;2.23;2.07;;;11.00;97.30;;;;;;5076521;28;20767;-80
2021/10/06 05:49:54;;;;;;;1.70;1.70;;;11.00;97.30;;;;;;5074697;28;20445;-80
2021/10/06 05:52:21;;;;;;;4.90;2.10;;;11.00;97.30;;;;;;5074360;28;20203;-82
2021/10/06 05:54:47;;;;;;;3.10;2.10;;;11.00;97.30;;;;;;5074371;28;20931;-81
2021/10/06 05:57:15;;;;;;;5.77;2.20;;;11.00;97.30;;;;;;5075200;28;20776;-81
2021/10/06 05:59:41;;;;;;;2.00;1.77;;;11.00;97.30;;;;;;5076209;28;20425;-79
2021/10/06 06:02:07;;;;;;;3.57;1.67;;;11.00;97.30;;;;;;5074939;28;20426;-80
2021/10/06 06:04:33;;;;;;;3.70;1.73;;;11.00;97.30;;;;;;5073828;28;20179;-79
2021/10/06 06:06:58;;;;;;;2.77;1.90;;;11.00;97.30;;;;;;5074781;28;20444;-80
2021/10/06 06:09:24;;;;;;;4.50;1.97;;;11.10;97.30;;;;;;5075840;28;20167;-81
2021/10/06 06:11:50;;;;;;;1.97;1.53;;;11.20;97.30;;;;;;5073989;28;20178;-81
2021/10/06 06:14:16;;;;;;;3.87;1.80;;;11.20;97.30;;;;;;5072820;28;20252;-80
2021/10/06 06:16:42;;;;;;;3.17;1.53;;;11.30;97.30;;;;;;5075054;28;20888;-81
2021/10/06 06:19:08;;;;;;;3.50;1.80;;;11.40;97.30;;;;;;5075088;28;20505;-80
2021/10/06 06:21:33;;;;;;;2.90;1.90;;;11.40;97.30;;;;;;5075337;28;20211;-80
2021/10/06 06:23:59;;;;;;;6.67;1.80;;;11.40;97.30;;;;;;5076906;28;20711;-78
2021/10/06 06:26:25;;;;;;;4.13;2.10;;;11.50;97.30;;;;;;5074939;28;20179;-82
2021/10/06 06:28:50;;;;;;;2.90;1.80;;;11.60;97.30;;;;;;5075119;28;20175;-81
2021/10/06 06:31:17;;;;;;;6.50;1.97;;;11.60;97.30;;;;;;5074478;28;20198;-81
2021/10/06 06:33:43;;;;;;;5.30;2.10;;;11.70;97.30;;;;;;5073701;28;20217;-81
2021/10/06 06:36:09;;;;;;;2.50;1.57;;;11.70;97.30;;;;;;5074164;28;20417;-81
2021/10/06 06:38:35;;;;;;;5.33;1.63;;;11.70;97.30;;;;;;5074437;28;20408;-81
2021/10/06 06:41:05;;;;;;;2.43;1.83;;;11.70;97.30;;;;;;5072478;28;20446;-77
2021/10/06 06:43:31;;;;;;;6.83;1.90;;;11.80;97.30;;;;;;5073067;28;20939;-79
2021/10/06 06:45:57;;;;;;;2.97;1.77;;;11.80;97.30;;;;;;5074509;28;20433;-81
2021/10/06 06:48:23;;;;;;;4.70;1.97;;;11.80;97.30;;;;;;5074831;28;20528;-81
2021/10/06 06:50:57;;;;;;;2.30;1.70;;;11.90;97.30;;;;;;5073674;28;20603;-81
2021/10/06 06:53:27;;;;;;;5.33;1.73;;;11.90;97.30;;;;;;5073437;28;20681;-80
2021/10/06 06:55:58;;;;;;;2.50;1.83;;;11.90;97.30;;;;;;5074096;28;20900;-79
2021/10/06 06:58:24;;;;;;;10.23;1.80;;;12.00;97.30;;;;;;5072296;28;20515;-78
2021/10/06 07:00:50;;;;;;;2.37;1.80;;;12.00;97.30;;;;;;5072588;28;20468;-81
2021/10/06 07:03:17;;;;;;;9.57;1.83;;;12.00;97.30;;;;;;5073319;28;20493;-80
2021/10/06 07:05:43;;;;;;;2.10;1.60;;;12.10;97.30;;;;;;5073160;28;20186;-81
2021/10/06 07:08:08;;;;;;;11.13;1.87;;;12.10;97.30;;;;;;5074770;28;20425;-81
2021/10/06 07:10:35;;;;;;;3.70;2.00;;;12.10;97.30;;;;;;5080463;28;20720;-82
2021/10/06 07:13:01;;;;;;;3.90;1.80;;;12.10;97.30;;;;;;5078341;28;20207;-81
2021/10/06 07:15:26;;;;;;;3.00;1.60;;;12.20;97.30;;;;;;5078199;28;20900;-80
2021/10/06 07:17:54;;;;;;;6.10;2.23;;;12.30;97.30;;;;;;5077820;28;20452;-79
2021/10/06 07:20:21;;;;;;;6.30;1.70;;;12.40;97.30;;;;;;5076860;28;20755;-82
2021/10/06 07:22:47;;;;;;;1.70;1.70;;;12.60;97.30;;;;;;5077567;28;20452;-80
2021/10/06 07:25:13;;;;;;;3.63;1.70;;;12.60;97.30;;;;;;5076774;28;20417;-80
2021/10/06 07:27:39;;;;;;;3.53;1.67;;;12.70;97.30;;;;;;5077959;28;20424;-82
2021/10/06 07:30:05;;;;;;;2.60;1.83;;;12.70;97.30;;;;;;5078671;28;20445;-80
2021/10/06 07:32:31;;;;;;;2.60;1.67;;;12.80;97.30;;;;;;5079225;28;20920;-81
2021/10/06 07:34:56;;;;;;;4.67;1.63;;;12.80;97.30;;;;;;5077349;28;20445;-79
2021/10/06 07:37:24;;;;;;;2.90;1.67;;;12.80;97.30;;;;;;5077796;28;20257;-80
2021/10/06 07:39:57;;;;;;;2.67;1.50;;;12.80;97.30;;;;;;5077498;28;20187;-81
2021/10/06 07:42:25;;;;;;;3.57;1.87;;;12.80;97.30;;;;;;5076954;28;20389;-81
2021/10/06 07:44:58;;;;;;;3.47;1.70;;;12.70;97.30;;;;;;5077384;28;20485;-81
2021/10/06 07:47:24;;;;;;;2.40;1.63;;;12.70;97.30;;;;;;5077159;28;20547;-82
2021/10/06 07:49:56;;;;;;;3.00;1.80;;;12.70;97.30;;;;;;5077095;28;20431;-80
2021/10/06 07:52:25;;;;;;;5.10;2.00;;;12.70;97.30;;;;;;5077175;28;20171;-80
2021/10/06 07:54:50;;;;;;;2.63;1.70;;;12.70;97.30;;;;;;5078042;28;20417;-82
2021/10/06 07:57:16;;;;;;;4.47;1.90;;;12.70;97.30;;;;;;5077704;28;20857;-81
2021/10/06 07:59:41;;;;;;;2.53;1.90;;;12.70;97.30;;;;;;5076727;28;20199;-79
2021/10/06 08:02:07;;;;;;;3.40;1.40;;;12.70;97.30;;;;;;5076931;28;20210;-79
2021/10/06 08:04:35;;;;;;;4.00;1.77;;;12.70;97.30;;;;;;5075970;28;20235;-78
2021/10/06 08:07:00;;;;;;;3.30;1.73;;;12.70;97.30;;;;;;5076993;28;20413;-80
2021/10/06 08:09:26;;;;;;;4.97;1.93;;;12.80;97.30;;;;;;5076321;28;20508;-79
2021/10/06 08:11:52;;;;;;;4.07;1.90;;;12.80;97.30;;;;;;5075902;28;20268;-81
2021/10/06 08:14:17;;;;;;;1.93;1.50;;;12.90;97.30;;;;;;5076760;28;20577;-79
2021/10/06 08:16:43;;;;;;;11.73;1.83;;;13.00;97.30;;;;;;5077289;28;20176;-80
2021/10/06 08:19:08;;;;;;;9.63;2.30;;;13.10;97.30;;;;;;5077689;28;20175;-80
2021/10/06 08:21:34;;;;;;;2.50;1.90;;;13.20;97.30;;;;;;5077644;28;20223;-78
2021/10/06 08:24:00;;;;;;;2.40;1.60;;;13.40;97.30;;;;;;5076698;28;20189;-80
2021/10/06 08:26:25;;;;;;;4.80;1.70;;;13.50;97.30;;;;;;5077243;28;20413;-79
2021/10/06 08:28:53;;;;;;;2.07;1.77;;;13.70;97.30;;;;;;5075295;28;20231;-81
2021/10/06 08:31:20;;;;;;;2.63;1.90;;;13.80;97.30;;;;;;5075543;28;20198;-82
2021/10/06 08:33:45;;;;;;;3.17;1.67;;;13.90;97.30;;;;;;5075475;28;20469;-83
2021/10/06 08:36:13;;;;;;;6.90;1.97;;;14.00;97.30;;;;;;5077460;28;20421;-80
2021/10/06 08:38:39;;;;;;;7.10;2.00;;;14.10;97.30;;;;;;5076020;28;20168;-82
2021/10/06 08:41:07;;;;;;;4.33;2.03;;;14.20;97.30;;;;;;5076408;28;20437;-81
2021/10/06 08:43:36;;;;;;;2.00;1.50;;;14.40;97.30;;;;;;5076212;28;20179;-81
2021/10/06 08:46:01;;;;;;;1.90;1.80;;;14.50;97.30;;;;;;5077395;28;20503;-80
2021/10/06 08:48:30;;;;;;;4.00;1.47;;;14.50;97.30;;;;;;5076678;28;20421;-81
2021/10/06 08:50:56;;;;;;;5.10;2.00;;;14.40;97.30;;;;;;5074777;28;20195;-80
2021/10/06 08:53:24;;;;;;;2.17;1.60;;;14.40;97.30;;;;;;5076445;28;20453;-81
2021/10/06 08:55:52;;;;;;;2.87;1.90;;;14.40;97.30;;;;;;5075235;28;20836;-81
2021/10/06 08:58:18;;;;;;;3.10;1.67;;;14.60;97.30;;;;;;5075713;28;20416;-81
2021/10/06 09:00:57;;;;;;;2.20;1.60;;;14.70;97.30;;;;;;5075887;28;20901;-81
2021/10/06 09:03:31;;;;;;;2.70;1.53;;;14.80;97.30;;;;;;5076152;28;20178;-82
2021/10/06 09:06:08;;;;;;;6.30;1.73;;;14.90;97.30;;;;;;5075320;28;20478;-80
2021/10/06 09:08:37;;;;;;;2.10;1.50;;;15.00;97.30;;;;;;5075242;28;20405;-82
2021/10/06 09:11:05;;;;;;;4.57;1.53;;;15.00;97.30;;;;;;5075988;28;20949;-81
2021/10/06 09:13:33;;;;;;;4.43;1.60;;;15.10;97.30;;;;;;5074592;28;20485;-78
2021/10/06 09:15:59;;;;;;;2.37;1.23;;;15.20;97.30;;;;;;5074083;28;20428;-82
2021/10/06 09:18:27;;;;;;;1.60;1.50;;;15.30;97.30;;;;;;5074307;28;20405;-79
2021/10/06 09:20:56;;;;;;;1.90;1.60;;;15.30;97.30;;;;;;5075463;28;20453;-82
2021/10/06 09:23:24;;;;;;;5.20;1.43;;;15.30;97.30;;;;;;5075266;28;20923;-80
2021/10/06 09:25:53;;;;;;;4.00;1.80;;;15.30;97.30;;;;;;5076304;28;20512;-81
2021/10/06 09:28:23;;;;;;;3.90;1.47;;;15.30;97.30;;;;;;5075486;28;21128;-79
2021/10/06 09:30:53;;;;;;;4.70;1.43;;;15.30;97.30;;;;;;5076447;28;20444;-82
2021/10/06 09:33:19;;;;;;;3.23;1.70;;;15.10;96.90;;;;;;5077392;28;20454;-81
2021/10/06 09:35:44;;;;;;;1.47;1.33;;;15.00;96.70;;;;;;5075124;28;20420;-82
2021/10/06 09:38:10;;;;;;;1.20;1.10;;;14.90;96.00;;;;;;5075847;28;20171;-80
2021/10/06 09:40:35;;;;;;;3.00;1.50;;;14.80;96.10;;;;;;5073979;28;20273;-83
2021/10/06 09:43:04;;;;;;;2.80;1.50;;;14.80;97.00;;;;;;5074004;28;20175;-80
2021/10/06 09:45:37;;;;;;;3.53;1.40;;;14.90;97.30;;;;;;5074883;28;20171;-82
2021/10/06 09:48:15;;;;;;;3.80;2.30;;;14.80;97.10;;;;;;5075324;28;20514;-81
2021/10/06 09:50:42;;;;;;;2.93;1.47;;;14.90;97.30;;;;;;5075230;28;20433;-80
2021/10/06 09:53:20;;;;;;;3.53;1.20;;;14.80;97.20;;;;;;5074916;28;20492;-80
2021/10/06 09:55:49;;;;;;;3.73;1.87;;;14.90;97.30;;;;;;5075540;28;20409;-81
2021/10/06 09:58:15;;;;;;;6.20;2.33;;;14.90;97.30;;;;;;5074801;28;20409;-81
2021/10/06 10:00:43;;;;;;;3.50;1.90;;;15.10;97.30;;;;;;5073740;28;20437;-80
2021/10/06 10:03:08;;;;;;;2.20;1.37;;;15.20;97.30;;;;;;5073826;28;20413;-81
2021/10/06 10:05:36;;;;;;;2.90;1.40;;;15.20;97.30;;;;;;5073816;28;20413;-80
2021/10/06 10:08:05;;;;;;;3.63;1.57;;;15.20;97.30;;;;;;5073732;28;20289;-81
2021/10/06 10:10:33;;;;;;;3.47;1.70;;;15.20;96.50;;;;;;5076240;28;20425;-81
2021/10/06 10:13:03;;;;;;;10.20;3.10;;;15.20;96.60;;;;;;5074504;28;20519;-81
2021/10/06 10:15:29;;;;;;;6.30;1.50;;;15.30;96.40;;;;;;5075439;28;20413;-81
2021/10/06 10:17:56;;;;;;;3.47;1.70;;;15.30;96.50;;;;;;5074318;28;20486;-83
2021/10/06 10:20:25;;;;;;;4.50;1.63;;;15.40;96.50;;;;;;5075126;28;20449;-82
2021/10/06 10:23:00;;;;;;;4.73;1.63;;;15.50;97.20;;;;;;5073022;28;20956;-81
2021/10/06 10:25:28;;;;;;;5.33;1.53;;;15.60;96.40;;;;;;5073583;28;20420;-80
2021/10/06 10:28:14;;;;;;;4.60;2.23;;;15.60;96.30;;;;;;5073462;28;20428;-81
2021/10/06 10:30:56;;;;;;;2.03;1.50;;;15.60;95.90;;;;;;5074039;28;20985;-80
2021/10/06 10:33:42;;;;;;;5.90;1.70;;;15.50;96.40;;;;;;5074330;28;20551;-82
2021/10/06 10:36:29;;;;;;;1.80;1.40;;;15.40;95.90;;;;;;5074169;28;20414;-82
2021/10/06 10:38:55;;;;;;;2.73;1.43;;;15.40;96.40;;;;;;5072715;28;20413;-80
2021/10/06 10:41:44;;;;;;;1.93;1.50;;;15.40;97.30;;;;;;5073712;28;20482;-78
2021/10/06 10:44:10;;;;;;;2.40;1.63;;;15.50;96.90;;;;;;5073009;28;20409;-81
2021/10/06 10:46:59;;;;;;;4.33;1.80;;;15.60;96.40;;;;;;5073838;28;20503;-82
2021/10/06 10:49:25;;;;;;;2.20;1.60;;;15.60;96.00;;;;;;5073056;28;20456;-82
2021/10/06 10:51:58;;;;;;;3.13;1.80;;;15.60;96.10;;;;;;5072669;28;20414;-79
2021/10/06 10:54:39;;;;;;;2.07;1.47;;;15.60;96.50;;;;;;5072477;28;20339;-81
2021/10/06 10:57:15;;;;;;;2.37;1.57;;;15.60;96.60;;;;;;5073367;28;21018;-81
2021/10/06 10:59:45;;;;;;;3.93;1.50;;;15.50;96.60;;;;;;5074026;28;20448;-79
2021/10/06 11:02:15;;;;;;;1.70;1.53;;;15.50;97.20;;;;;;5073887;28;20542;-77
2021/10/06 11:04:45;;;;;;;7.47;1.93;;;15.50;96.80;;;;;;5073902;28;20417;-77
2021/10/06 11:07:18;;;;;;;3.17;2.47;;;15.50;97.20;;;;;;5073428;28;20414;-82
2021/10/06 11:09:49;;;;;;;3.20;1.30;;;15.50;96.70;;;;;;5071711;28;20429;-82
2021/10/06 11:12:14;;;;;;;2.50;1.60;;;15.60;97.00;;;;;;5071901;28;20494;-81
2021/10/06 11:14:42;;;;;;;2.60;1.43;;;15.60;97.00;;;;;;5072934;28;20975;-82
2021/10/06 11:17:12;;;;;;;2.40;1.70;;;15.60;97.30;;;;;;5070919;28;20179;-82
2021/10/06 11:19:54;;;;;;;2.60;1.53;;;15.60;96.20;;;;;;5071033;28;20441;-82
2021/10/06 11:22:23;;;;;;;1.90;1.40;;;15.70;96.10;;;;;;5072161;28;20413;-81
2021/10/06 11:25:04;;;;;;;2.40;1.70;;;15.90;97.30;;;;;;5073884;28;20413;-81
2021/10/06 11:27:47;;;;;;;4.30;1.60;;;16.00;93.90;;;;;;5075520;28;20409;-82
2021/10/06 11:30:14;;;;;;;3.70;1.80;;;15.90;94.10;;;;;;5074200;28;20947;-82
2021/10/06 11:32:45;;;;;;;2.60;1.70;;;15.90;94.40;;;;;;5073038;28;21018;-80
2021/10/06 11:35:10;;;;;;;2.07;1.50;;;15.90;95.00;;;;;;5073122;28;20484;-80
2021/10/06 11:37:36;;;;;;;3.67;1.80;;;16.00;95.80;;;;;;5073443;28;20502;-81
2021/10/06 11:40:07;;;;;;;5.43;1.90;;;16.00;95.40;;;;;;5072726;28;20221;-78
2021/10/06 11:42:33;;;;;;;1.73;1.50;;;15.90;95.60;;;;;;5072689;28;20194;-80
2021/10/06 11:44:58;;;;;;;3.97;1.57;;;15.80;95.60;;;;;;5073517;28;20641;-80
2021/10/06 11:47:24;;;;;;;1.63;1.60;;;15.70;95.00;;;;;;5073577;28;20214;-79
2021/10/06 11:49:50;;;;;;;4.40;1.90;;;15.60;95.00;;;;;;5073348;28;20191;-81
2021/10/06 11:52:19;;;;;;;4.33;1.70;;;15.60;95.90;;;;;;5073992;28;20176;-82
2021/10/06 11:54:46;;;;;;;1.70;1.70;;;15.60;95.50;;;;;;5074386;28;20190;-82
2021/10/06 11:57:17;;;;;;;4.33;2.03;;;15.60;95.70;;;;;;5075830;28;20409;-83
2021/10/06 11:59:45;;;;;;;2.63;1.60;;;15.60;95.90;;;;;;5076011;28;20436;-81
2021/10/06 12:02:13;;;;;;;5.47;1.80;;;15.60;95.70;;;;;;5074773;28;20409;-79
2021/10/06 12:04:42;;;;;;;3.00;1.87;;;15.60;97.20;;;;;;5074532;28;20463;-82
2021/10/06 12:07:10;;;;;;;2.40;1.63;;;15.60;97.00;;;;;;5074628;28;20452;-81
2021/10/06 12:09:41;;;;;;;10.53;1.70;;;15.60;97.30;;;;;;5076062;28;20464;-79
2021/10/06 12:12:12;;;;;;;1.40;1.30;;;15.60;95.50;;;;;;5076227;28;20422;-81
2021/10/06 12:14:51;;;;;;;3.23;2.00;;;15.60;96.00;;;;;;5076338;28;20449;-82
2021/10/06 12:17:22;;;;;;;2.63;1.70;;;15.60;96.20;;;;;;5077523;28;20385;-81
2021/10/06 12:20:04;;;;;;;4.20;1.80;;;15.70;96.30;;;;;;5075465;28;20467;-80
2021/10/06 12:22:38;;;;;;;5.30;1.60;;;15.80;97.10;;;;;;5075846;28;21193;-81
2021/10/06 12:25:27;;;;;;;1.90;1.40;;;15.70;96.40;;;;;;5075007;28;20424;-80
2021/10/06 12:28:02;;;;;;;3.23;1.70;;;15.70;97.10;;;;;;5076712;28;20400;-79
2021/10/06 12:30:32;;;;;;;2.80;1.80;;;15.60;96.10;;;;;;5074286;28;21009;-80
2021/10/06 12:33:09;;;;;;;5.53;1.90;;;15.60;96.60;;;;;;5075349;28;20459;-80
2021/10/06 12:35:45;;;;;;;1.60;1.43;;;15.60;96.60;;;;;;5078350;28;20431;-81
2021/10/06 12:38:12;;;;;;;6.20;1.50;;;15.60;95.20;;;;;;5076326;28;20409;-82
2021/10/06 12:40:50;;;;;;;5.00;2.13;;;15.60;94.70;;;;;;5075482;28;20429;-81
2021/10/06 12:43:18;;;;;;;4.17;1.60;;;15.70;95.20;;;;;;5075151;28;20444;-82
2021/10/06 12:46:05;;;;;;;4.00;1.77;;;15.70;95.30;;;;;;5074872;28;21025;-82
2021/10/06 12:48:43;;;;;;;6.10;2.10;;;15.80;96.10;;;;;;5075306;28;20413;-80